sensor_id;sensor_type;location;lat;lon;timestamp;P1;durP1;ratioP1;P2;durP2;ratioP2
83199;SDS011;73092;49.132;8.920;2024-01-10T00:01:22;24.77;;;10.95;;
83199;SDS011;73092;49.132;8.920;2024-01-10T00:03:51;32.30;;;11.18;;
83199;SDS011;73092;49.132;8.920;2024-01-10T00:06:17;30.60;;;12.57;;
83199;SDS011;73092;49.132;8.920;2024-01-10T00:08:43;32.47;;;12.90;;
83199;SDS011;73092;49.132;8.920;2024-01-10T00:11:08;21.17;;;11.00;;
83199;SDS011;73092;49.132;8.920;2024-01-10T00:13:34;26.87;;;11.20;;
83199;SDS011;73092;49.132;8.920;2024-01-10T00:15:59;28.60;;;11.33;;
83199;SDS011;73092;49.132;8.920;2024-01-10T00:18:24;20.53;;;11.53;;
83199;SDS011;73092;49.132;8.920;2024-01-10T00:20:51;34.88;;;11.93;;
83199;SDS011;73092;49.132;8.920;2024-01-10T00:23:18;26.58;;;11.13;;
83199;SDS011;73092;49.132;8.920;2024-01-10T00:25:44;22.13;;;11.35;;
83199;SDS011;73092;49.132;8.920;2024-01-10T00:28:10;23.27;;;11.38;;
83199;SDS011;73092;49.132;8.920;2024-01-10T00:30:37;32.95;;;11.10;;
83199;SDS011;73092;49.132;8.920;2024-01-10T00:33:03;29.00;;;13.80;;
83199;SDS011;73092;49.132;8.920;2024-01-10T00:35:28;24.45;;;13.40;;
83199;SDS011;73092;49.132;8.920;2024-01-10T00:37:53;27.53;;;11.83;;
83199;SDS011;73092;49.132;8.920;2024-01-10T00:40:19;23.63;;;9.80;;
83199;SDS011;73092;49.132;8.920;2024-01-10T00:42:44;24.23;;;11.35;;
83199;SDS011;73092;49.132;8.920;2024-01-10T00:45:10;28.07;;;12.60;;
83199;SDS011;73092;49.132;8.920;2024-01-10T00:47:35;27.53;;;13.97;;
83199;SDS011;73092;49.132;8.920;2024-01-10T00:50:00;25.90;;;11.07;;
83199;SDS011;73092;49.132;8.920;2024-01-10T00:52:26;24.47;;;11.87;;
83199;SDS011;73092;49.132;8.920;2024-01-10T00:54:51;24.73;;;12.73;;
83199;SDS011;73092;49.132;8.920;2024-01-10T00:57:16;26.10;;;10.82;;
83199;SDS011;73092;49.132;8.920;2024-01-10T00:59:42;33.90;;;11.77;;
83199;SDS011;73092;49.132;8.920;2024-01-10T01:02:08;34.13;;;13.63;;
83199;SDS011;73092;49.132;8.920;2024-01-10T01:04:34;22.60;;;11.45;;
83199;SDS011;73092;49.132;8.920;2024-01-10T01:06:59;24.57;;;10.47;;
83199;SDS011;73092;49.132;8.920;2024-01-10T01:09:24;26.73;;;12.00;;
83199;SDS011;73092;49.132;8.920;2024-01-10T01:11:50;27.40;;;12.88;;
83199;SDS011;73092;49.132;8.920;2024-01-10T01:14:16;28.17;;;14.60;;
83199;SDS011;73092;49.132;8.920;2024-01-10T01:16:41;31.57;;;13.47;;
83199;SDS011;73092;49.132;8.920;2024-01-10T01:19:07;24.98;;;11.20;;
83199;SDS011;73092;49.132;8.920;2024-01-10T01:21:32;30.27;;;13.17;;
83199;SDS011;73092;49.132;8.920;2024-01-10T01:23:57;25.80;;;12.33;;
83199;SDS011;73092;49.132;8.920;2024-01-10T01:26:23;22.77;;;12.13;;
83199;SDS011;73092;49.132;8.920;2024-01-10T01:28:48;27.53;;;11.97;;
83199;SDS011;73092;49.132;8.920;2024-01-10T01:31:15;25.48;;;12.75;;
83199;SDS011;73092;49.132;8.920;2024-01-10T01:33:40;23.70;;;10.43;;
83199;SDS011;73092;49.132;8.920;2024-01-10T01:36:06;28.90;;;11.25;;
83199;SDS011;73092;49.132;8.920;2024-01-10T01:38:32;27.42;;;10.93;;
83199;SDS011;73092;49.132;8.920;2024-01-10T01:40:57;22.30;;;11.93;;
83199;SDS011;73092;49.132;8.920;2024-01-10T01:43:23;27.48;;;11.73;;
83199;SDS011;73092;49.132;8.920;2024-01-10T01:48:17;28.27;;;11.80;;
83199;SDS011;73092;49.132;8.920;2024-01-10T01:50:44;27.40;;;12.02;;
83199;SDS011;73092;49.132;8.920;2024-01-10T01:53:12;29.35;;;11.38;;
83199;SDS011;73092;49.132;8.920;2024-01-10T01:55:38;23.40;;;10.10;;
83199;SDS011;73092;49.132;8.920;2024-01-10T01:58:04;26.50;;;11.00;;
83199;SDS011;73092;49.132;8.920;2024-01-10T02:00:30;35.78;;;12.27;;
83199;SDS011;73092;49.132;8.920;2024-01-10T02:02:56;30.67;;;13.48;;
83199;SDS011;73092;49.132;8.920;2024-01-10T02:05:24;34.15;;;11.10;;
83199;SDS011;73092;49.132;8.920;2024-01-10T02:07:50;21.77;;;11.73;;
83199;SDS011;73092;49.132;8.920;2024-01-10T02:10:15;37.85;;;13.82;;
83199;SDS011;73092;49.132;8.920;2024-01-10T02:12:41;28.67;;;11.45;;
83199;SDS011;73092;49.132;8.920;2024-01-10T02:15:07;28.58;;;14.38;;
83199;SDS011;73092;49.132;8.920;2024-01-10T02:17:32;25.77;;;12.23;;
83199;SDS011;73092;49.132;8.920;2024-01-10T02:20:10;21.50;;;11.57;;
83199;SDS011;73092;49.132;8.920;2024-01-10T02:22:37;26.25;;;12.43;;
83199;SDS011;73092;49.132;8.920;2024-01-10T02:25:06;24.88;;;11.65;;
83199;SDS011;73092;49.132;8.920;2024-01-10T02:27:33;32.72;;;13.68;;
83199;SDS011;73092;49.132;8.920;2024-01-10T02:30:01;23.30;;;11.57;;
83199;SDS011;73092;49.132;8.920;2024-01-10T02:32:28;27.20;;;11.05;;
83199;SDS011;73092;49.132;8.920;2024-01-10T02:34:54;29.40;;;13.13;;
83199;SDS011;73092;49.132;8.920;2024-01-10T02:37:19;32.97;;;13.85;;
83199;SDS011;73092;49.132;8.920;2024-01-10T02:39:45;33.90;;;13.43;;
83199;SDS011;73092;49.132;8.920;2024-01-10T02:42:10;33.10;;;14.10;;
83199;SDS011;73092;49.132;8.920;2024-01-10T02:44:36;29.58;;;12.73;;
83199;SDS011;73092;49.132;8.920;2024-01-10T02:47:01;32.53;;;13.97;;
83199;SDS011;73092;49.132;8.920;2024-01-10T02:49:27;27.53;;;14.97;;
83199;SDS011;73092;49.132;8.920;2024-01-10T02:51:52;24.70;;;12.57;;
83199;SDS011;73092;49.132;8.920;2024-01-10T02:54:17;34.10;;;13.47;;
83199;SDS011;73092;49.132;8.920;2024-01-10T02:56:44;21.38;;;10.73;;
83199;SDS011;73092;49.132;8.920;2024-01-10T02:59:09;26.60;;;13.67;;
83199;SDS011;73092;49.132;8.920;2024-01-10T03:01:35;25.83;;;12.23;;
83199;SDS011;73092;49.132;8.920;2024-01-10T03:04:01;20.58;;;8.15;;
83199;SDS011;73092;49.132;8.920;2024-01-10T03:06:27;29.77;;;11.87;;
83199;SDS011;73092;49.132;8.920;2024-01-10T03:08:52;27.33;;;12.53;;
83199;SDS011;73092;49.132;8.920;2024-01-10T03:11:19;25.10;;;13.95;;
83199;SDS011;73092;49.132;8.920;2024-01-10T03:13:45;25.57;;;11.33;;
83199;SDS011;73092;49.132;8.920;2024-01-10T03:16:11;32.78;;;12.57;;
83199;SDS011;73092;49.132;8.920;2024-01-10T03:18:37;28.30;;;11.77;;
83199;SDS011;73092;49.132;8.920;2024-01-10T03:21:03;26.48;;;11.60;;
83199;SDS011;73092;49.132;8.920;2024-01-10T03:23:29;38.75;;;13.63;;
83199;SDS011;73092;49.132;8.920;2024-01-10T03:25:58;31.75;;;12.70;;
83199;SDS011;73092;49.132;8.920;2024-01-10T03:28:25;27.35;;;14.10;;
83199;SDS011;73092;49.132;8.920;2024-01-10T03:30:51;32.10;;;12.80;;
83199;SDS011;73092;49.132;8.920;2024-01-10T03:33:17;30.83;;;13.32;;
83199;SDS011;73092;49.132;8.920;2024-01-10T03:35:42;25.60;;;11.53;;
83199;SDS011;73092;49.132;8.920;2024-01-10T03:38:08;25.70;;;11.90;;
83199;SDS011;73092;49.132;8.920;2024-01-10T03:40:34;26.45;;;12.20;;
83199;SDS011;73092;49.132;8.920;2024-01-10T03:42:59;31.65;;;13.23;;
83199;SDS011;73092;49.132;8.920;2024-01-10T03:45:24;28.40;;;13.93;;
83199;SDS011;73092;49.132;8.920;2024-01-10T03:47:50;27.53;;;11.23;;
83199;SDS011;73092;49.132;8.920;2024-01-10T03:50:18;18.33;;;8.80;;
83199;SDS011;73092;49.132;8.920;2024-01-10T03:52:44;28.90;;;13.15;;
83199;SDS011;73092;49.132;8.920;2024-01-10T03:55:11;36.28;;;14.60;;
83199;SDS011;73092;49.132;8.920;2024-01-10T03:57:38;30.35;;;14.48;;
83199;SDS011;73092;49.132;8.920;2024-01-10T04:00:04;21.83;;;12.30;;
83199;SDS011;73092;49.132;8.920;2024-01-10T04:02:31;36.70;;;14.50;;
83199;SDS011;73092;49.132;8.920;2024-01-10T04:04:57;26.17;;;12.75;;
83199;SDS011;73092;49.132;8.920;2024-01-10T04:07:22;32.67;;;13.75;;
83199;SDS011;73092;49.132;8.920;2024-01-10T04:09:48;28.83;;;12.63;;
83199;SDS011;73092;49.132;8.920;2024-01-10T04:12:13;30.50;;;13.43;;
83199;SDS011;73092;49.132;8.920;2024-01-10T04:14:38;33.87;;;13.27;;
83199;SDS011;73092;49.132;8.920;2024-01-10T04:17:04;31.50;;;12.43;;
83199;SDS011;73092;49.132;8.920;2024-01-10T04:19:32;35.33;;;13.45;;
83199;SDS011;73092;49.132;8.920;2024-01-10T04:21:57;26.98;;;12.60;;
83199;SDS011;73092;49.132;8.920;2024-01-10T04:24:23;23.35;;;11.15;;
83199;SDS011;73092;49.132;8.920;2024-01-10T04:26:48;30.98;;;13.00;;
83199;SDS011;73092;49.132;8.920;2024-01-10T04:29:14;31.95;;;14.18;;
83199;SDS011;73092;49.132;8.920;2024-01-10T04:31:39;24.17;;;13.63;;
83199;SDS011;73092;49.132;8.920;2024-01-10T04:34:05;33.33;;;13.98;;
83199;SDS011;73092;49.132;8.920;2024-01-10T04:36:30;20.23;;;11.43;;
83199;SDS011;73092;49.132;8.920;2024-01-10T04:38:57;39.75;;;16.10;;
83199;SDS011;73092;49.132;8.920;2024-01-10T04:41:22;30.40;;;12.90;;
83199;SDS011;73092;49.132;8.920;2024-01-10T04:43:48;29.65;;;13.55;;
83199;SDS011;73092;49.132;8.920;2024-01-10T04:46:13;28.70;;;13.60;;
83199;SDS011;73092;49.132;8.920;2024-01-10T04:48:38;27.85;;;12.70;;
83199;SDS011;73092;49.132;8.920;2024-01-10T04:51:04;27.17;;;11.23;;
83199;SDS011;73092;49.132;8.920;2024-01-10T04:53:29;31.70;;;14.32;;
83199;SDS011;73092;49.132;8.920;2024-01-10T04:55:54;21.17;;;11.57;;
83199;SDS011;73092;49.132;8.920;2024-01-10T04:58:20;27.80;;;12.70;;
83199;SDS011;73092;49.132;8.920;2024-01-10T05:00:45;38.70;;;15.33;;
83199;SDS011;73092;49.132;8.920;2024-01-10T05:03:11;29.67;;;12.38;;
83199;SDS011;73092;49.132;8.920;2024-01-10T05:05:37;27.23;;;12.27;;
83199;SDS011;73092;49.132;8.920;2024-01-10T05:08:03;22.90;;;11.53;;
83199;SDS011;73092;49.132;8.920;2024-01-10T05:10:29;27.83;;;12.30;;
83199;SDS011;73092;49.132;8.920;2024-01-10T05:12:55;29.08;;;13.02;;
83199;SDS011;73092;49.132;8.920;2024-01-10T05:15:20;27.67;;;11.90;;
83199;SDS011;73092;49.132;8.920;2024-01-10T05:17:45;26.83;;;12.77;;
83199;SDS011;73092;49.132;8.920;2024-01-10T05:20:11;24.70;;;12.03;;
83199;SDS011;73092;49.132;8.920;2024-01-10T05:22:36;24.03;;;11.80;;
83199;SDS011;73092;49.132;8.920;2024-01-10T05:25:02;26.42;;;14.57;;
83199;SDS011;73092;49.132;8.920;2024-01-10T05:29:55;29.13;;;11.43;;
83199;SDS011;73092;49.132;8.920;2024-01-10T05:32:20;30.77;;;12.67;;
83199;SDS011;73092;49.132;8.920;2024-01-10T05:34:46;37.85;;;14.25;;
83199;SDS011;73092;49.132;8.920;2024-01-10T05:37:13;25.80;;;11.43;;
83199;SDS011;73092;49.132;8.920;2024-01-10T05:39:38;22.73;;;10.70;;
83199;SDS011;73092;49.132;8.920;2024-01-10T05:42:10;27.33;;;11.90;;
83199;SDS011;73092;49.132;8.920;2024-01-10T05:44:36;25.50;;;14.30;;
83199;SDS011;73092;49.132;8.920;2024-01-10T05:47:01;31.77;;;14.32;;
83199;SDS011;73092;49.132;8.920;2024-01-10T05:49:27;30.27;;;15.20;;
83199;SDS011;73092;49.132;8.920;2024-01-10T05:51:53;27.70;;;13.18;;
83199;SDS011;73092;49.132;8.920;2024-01-10T05:54:19;29.30;;;13.13;;
83199;SDS011;73092;49.132;8.920;2024-01-10T05:56:44;26.17;;;13.50;;
83199;SDS011;73092;49.132;8.920;2024-01-10T05:59:09;25.93;;;12.10;;
83199;SDS011;73092;49.132;8.920;2024-01-10T06:04:07;36.53;;;13.82;;
83199;SDS011;73092;49.132;8.920;2024-01-10T06:06:33;26.83;;;12.52;;
83199;SDS011;73092;49.132;8.920;2024-01-10T06:08:58;31.33;;;13.63;;
83199;SDS011;73092;49.132;8.920;2024-01-10T06:11:23;25.47;;;13.67;;
83199;SDS011;73092;49.132;8.920;2024-01-10T06:13:49;26.17;;;13.48;;
83199;SDS011;73092;49.132;8.920;2024-01-10T06:16:14;29.90;;;11.90;;
83199;SDS011;73092;49.132;8.920;2024-01-10T06:18:40;36.05;;;14.35;;
83199;SDS011;73092;49.132;8.920;2024-01-10T06:21:14;23.65;;;12.15;;
83199;SDS011;73092;49.132;8.920;2024-01-10T06:23:40;28.57;;;12.10;;
83199;SDS011;73092;49.132;8.920;2024-01-10T06:26:07;28.88;;;12.05;;
83199;SDS011;73092;49.132;8.920;2024-01-10T06:31:01;25.40;;;11.67;;
83199;SDS011;73092;49.132;8.920;2024-01-10T06:33:27;24.63;;;12.38;;
83199;SDS011;73092;49.132;8.920;2024-01-10T06:35:53;22.87;;;11.80;;
83199;SDS011;73092;49.132;8.920;2024-01-10T06:38:20;23.90;;;11.50;;
83199;SDS011;73092;49.132;8.920;2024-01-10T06:40:47;31.60;;;12.48;;
83199;SDS011;73092;49.132;8.920;2024-01-10T06:43:13;25.40;;;13.38;;
83199;SDS011;73092;49.132;8.920;2024-01-10T06:45:40;29.45;;;12.25;;
83199;SDS011;73092;49.132;8.920;2024-01-10T06:48:07;33.17;;;13.52;;
83199;SDS011;73092;49.132;8.920;2024-01-10T06:50:33;28.63;;;12.95;;
83199;SDS011;73092;49.132;8.920;2024-01-10T06:52:58;37.17;;;16.73;;
83199;SDS011;73092;49.132;8.920;2024-01-10T06:55:23;30.67;;;13.63;;
83199;SDS011;73092;49.132;8.920;2024-01-10T06:57:49;28.88;;;12.13;;
83199;SDS011;73092;49.132;8.920;2024-01-10T07:02:45;30.38;;;13.38;;
83199;SDS011;73092;49.132;8.920;2024-01-10T07:05:14;29.63;;;12.23;;
83199;SDS011;73092;49.132;8.920;2024-01-10T07:07:41;25.02;;;12.80;;
83199;SDS011;73092;49.132;8.920;2024-01-10T07:10:08;32.83;;;15.90;;
83199;SDS011;73092;49.132;8.920;2024-01-10T07:12:37;30.98;;;15.77;;
83199;SDS011;73092;49.132;8.920;2024-01-10T07:15:04;34.92;;;15.23;;
83199;SDS011;73092;49.132;8.920;2024-01-10T07:17:36;35.10;;;14.18;;
83199;SDS011;73092;49.132;8.920;2024-01-10T07:20:03;22.23;;;11.77;;
83199;SDS011;73092;49.132;8.920;2024-01-10T07:22:28;36.35;;;15.57;;
83199;SDS011;73092;49.132;8.920;2024-01-10T07:24:55;36.73;;;17.00;;
83199;SDS011;73092;49.132;8.920;2024-01-10T07:29:47;30.90;;;13.07;;
83199;SDS011;73092;49.132;8.920;2024-01-10T07:32:14;29.98;;;13.88;;
83199;SDS011;73092;49.132;8.920;2024-01-10T07:34:40;39.72;;;15.63;;
83199;SDS011;73092;49.132;8.920;2024-01-10T07:37:07;30.77;;;14.63;;
83199;SDS011;73092;49.132;8.920;2024-01-10T07:39:41;27.92;;;13.40;;
83199;SDS011;73092;49.132;8.920;2024-01-10T07:42:06;37.77;;;16.00;;
83199;SDS011;73092;49.132;8.920;2024-01-10T07:44:34;26.85;;;13.27;;
83199;SDS011;73092;49.132;8.920;2024-01-10T07:47:00;39.38;;;13.60;;
83199;SDS011;73092;49.132;8.920;2024-01-10T07:49:26;40.40;;;15.60;;
83199;SDS011;73092;49.132;8.920;2024-01-10T07:51:52;33.95;;;11.63;;
83199;SDS011;73092;49.132;8.920;2024-01-10T07:54:18;30.45;;;15.57;;
83199;SDS011;73092;49.132;8.920;2024-01-10T07:56:43;32.83;;;14.77;;
83199;SDS011;73092;49.132;8.920;2024-01-10T07:59:08;42.37;;;16.60;;
83199;SDS011;73092;49.132;8.920;2024-01-10T08:01:38;38.88;;;15.63;;
83199;SDS011;73092;49.132;8.920;2024-01-10T08:04:10;39.40;;;16.48;;
83199;SDS011;73092;49.132;8.920;2024-01-10T08:06:35;35.60;;;15.10;;
83199;SDS011;73092;49.132;8.920;2024-01-10T08:09:01;30.63;;;13.77;;
83199;SDS011;73092;49.132;8.920;2024-01-10T08:11:29;38.33;;;15.70;;
83199;SDS011;73092;49.132;8.920;2024-01-10T08:13:57;30.13;;;14.35;;
83199;SDS011;73092;49.132;8.920;2024-01-10T08:16:22;40.97;;;15.90;;
83199;SDS011;73092;49.132;8.920;2024-01-10T08:18:47;35.67;;;15.60;;
83199;SDS011;73092;49.132;8.920;2024-01-10T08:21:14;38.28;;;16.20;;
83199;SDS011;73092;49.132;8.920;2024-01-10T08:23:39;39.53;;;15.60;;
83199;SDS011;73092;49.132;8.920;2024-01-10T08:26:08;32.67;;;14.50;;
83199;SDS011;73092;49.132;8.920;2024-01-10T08:30:59;33.43;;;16.57;;
83199;SDS011;73092;49.132;8.920;2024-01-10T08:33:26;36.20;;;16.45;;
83199;SDS011;73092;49.132;8.920;2024-01-10T08:35:59;34.13;;;14.70;;
83199;SDS011;73092;49.132;8.920;2024-01-10T08:38:35;34.78;;;17.77;;
83199;SDS011;73092;49.132;8.920;2024-01-10T08:41:02;32.47;;;14.55;;
83199;SDS011;73092;49.132;8.920;2024-01-10T08:43:34;27.88;;;12.40;;
83199;SDS011;73092;49.132;8.920;2024-01-10T08:46:01;30.75;;;13.57;;
83199;SDS011;73092;49.132;8.920;2024-01-10T08:48:28;41.15;;;16.88;;
83199;SDS011;73092;49.132;8.920;2024-01-10T08:50:55;29.48;;;14.10;;
83199;SDS011;73092;49.132;8.920;2024-01-10T08:53:21;31.02;;;15.40;;
83199;SDS011;73092;49.132;8.920;2024-01-10T08:55:47;38.28;;;14.18;;
83199;SDS011;73092;49.132;8.920;2024-01-10T08:58:13;38.38;;;14.27;;
83199;SDS011;73092;49.132;8.920;2024-01-10T09:00:38;34.42;;;15.30;;
83199;SDS011;73092;49.132;8.920;2024-01-10T09:03:04;35.57;;;14.37;;
83199;SDS011;73092;49.132;8.920;2024-01-10T09:05:29;36.50;;;13.35;;
83199;SDS011;73092;49.132;8.920;2024-01-10T09:07:55;41.65;;;15.50;;
83199;SDS011;73092;49.132;8.920;2024-01-10T09:10:20;35.33;;;14.17;;
83199;SDS011;73092;49.132;8.920;2024-01-10T09:12:49;37.75;;;15.98;;
83199;SDS011;73092;49.132;8.920;2024-01-10T09:15:14;47.07;;;17.10;;
83199;SDS011;73092;49.132;8.920;2024-01-10T09:17:43;36.95;;;15.02;;
83199;SDS011;73092;49.132;8.920;2024-01-10T09:20:09;36.17;;;17.23;;
83199;SDS011;73092;49.132;8.920;2024-01-10T09:22:36;34.03;;;12.48;;
83199;SDS011;73092;49.132;8.920;2024-01-10T09:25:03;41.88;;;16.60;;
83199;SDS011;73092;49.132;8.920;2024-01-10T09:27:32;35.50;;;14.48;;
83199;SDS011;73092;49.132;8.920;2024-01-10T09:30:06;36.22;;;17.63;;
83199;SDS011;73092;49.132;8.920;2024-01-10T09:32:35;39.97;;;15.02;;
83199;SDS011;73092;49.132;8.920;2024-01-10T09:35:01;37.05;;;15.15;;
83199;SDS011;73092;49.132;8.920;2024-01-10T09:37:28;37.20;;;15.75;;
83199;SDS011;73092;49.132;8.920;2024-01-10T09:39:53;42.38;;;16.88;;
83199;SDS011;73092;49.132;8.920;2024-01-10T09:42:20;43.92;;;18.13;;
83199;SDS011;73092;49.132;8.920;2024-01-10T09:44:53;41.78;;;16.48;;
83199;SDS011;73092;49.132;8.920;2024-01-10T09:47:38;42.15;;;15.70;;
83199;SDS011;73092;49.132;8.920;2024-01-10T09:50:05;37.67;;;16.67;;
83199;SDS011;73092;49.132;8.920;2024-01-10T09:52:35;45.50;;;17.85;;
83199;SDS011;73092;49.132;8.920;2024-01-10T09:55:07;43.85;;;16.85;;
83199;SDS011;73092;49.132;8.920;2024-01-10T09:57:34;43.90;;;17.38;;
83199;SDS011;73092;49.132;8.920;2024-01-10T10:00:02;54.10;;;17.65;;
83199;SDS011;73092;49.132;8.920;2024-01-10T10:02:30;45.78;;;17.80;;
83199;SDS011;73092;49.132;8.920;2024-01-10T10:05:31;45.70;;;18.45;;
83199;SDS011;73092;49.132;8.920;2024-01-10T10:07:51;42.08;;;17.70;;
83199;SDS011;73092;49.132;8.920;2024-01-10T10:10:18;44.42;;;17.10;;
83199;SDS011;73092;49.132;8.920;2024-01-10T10:12:46;45.72;;;17.45;;
83199;SDS011;73092;49.132;8.920;2024-01-10T10:15:32;48.90;;;18.63;;
83199;SDS011;73092;49.132;8.920;2024-01-10T10:17:58;52.70;;;19.30;;
83199;SDS011;73092;49.132;8.920;2024-01-10T10:20:24;56.43;;;20.40;;
83199;SDS011;73092;49.132;8.920;2024-01-10T10:25:36;51.63;;;21.55;;
83199;SDS011;73092;49.132;8.920;2024-01-10T10:28:07;58.38;;;21.60;;
83199;SDS011;73092;49.132;8.920;2024-01-10T10:30:33;45.23;;;17.70;;
83199;SDS011;73092;49.132;8.920;2024-01-10T10:32:58;50.17;;;19.02;;
83199;SDS011;73092;49.132;8.920;2024-01-10T10:35:25;54.10;;;20.25;;
83199;SDS011;73092;49.132;8.920;2024-01-10T10:37:53;54.58;;;19.02;;
83199;SDS011;73092;49.132;8.920;2024-01-10T10:40:19;58.75;;;22.00;;
83199;SDS011;73092;49.132;8.920;2024-01-10T10:42:46;55.83;;;20.67;;
83199;SDS011;73092;49.132;8.920;2024-01-10T10:45:14;53.13;;;19.63;;
83199;SDS011;73092;49.132;8.920;2024-01-10T10:47:42;59.65;;;20.35;;
83199;SDS011;73092;49.132;8.920;2024-01-10T10:50:13;35.10;;;16.40;;
83199;SDS011;73092;49.132;8.920;2024-01-10T10:52:54;48.33;;;20.67;;
83199;SDS011;73092;49.132;8.920;2024-01-10T10:55:21;57.33;;;20.90;;
83199;SDS011;73092;49.132;8.920;2024-01-10T10:57:55;48.42;;;18.73;;
83199;SDS011;73092;49.132;8.920;2024-01-10T11:00:23;60.95;;;21.95;;
83199;SDS011;73092;49.132;8.920;2024-01-10T11:02:56;55.00;;;20.55;;
83199;SDS011;73092;49.132;8.920;2024-01-10T11:05:22;66.78;;;21.63;;
83199;SDS011;73092;49.132;8.920;2024-01-10T11:07:55;55.20;;;23.02;;
83199;SDS011;73092;49.132;8.920;2024-01-10T11:10:28;64.43;;;21.23;;
83199;SDS011;73092;49.132;8.920;2024-01-10T11:15:51;58.47;;;22.45;;
83199;SDS011;73092;49.132;8.920;2024-01-10T11:23:49;62.28;;;21.63;;
83199;SDS011;73092;49.132;8.920;2024-01-10T11:26:18;62.17;;;21.90;;
83199;SDS011;73092;49.132;8.920;2024-01-10T11:28:46;63.08;;;24.45;;
83199;SDS011;73092;49.132;8.920;2024-01-10T11:31:15;66.30;;;20.90;;
83199;SDS011;73092;49.132;8.920;2024-01-10T11:36:18;46.88;;;19.08;;
83199;SDS011;73092;49.132;8.920;2024-01-10T11:41:34;70.88;;;25.80;;
83199;SDS011;73092;49.132;8.920;2024-01-10T11:46:52;63.53;;;23.67;;
83199;SDS011;73092;49.132;8.920;2024-01-10T11:49:20;52.65;;;23.90;;
83199;SDS011;73092;49.132;8.920;2024-01-10T11:51:47;63.92;;;25.20;;
83199;SDS011;73092;49.132;8.920;2024-01-10T11:57:11;64.28;;;22.70;;
83199;SDS011;73092;49.132;8.920;2024-01-10T11:59:54;60.17;;;22.67;;
83199;SDS011;73092;49.132;8.920;2024-01-10T12:02:21;60.25;;;22.70;;
83199;SDS011;73092;49.132;8.920;2024-01-10T12:04:55;64.90;;;24.88;;
83199;SDS011;73092;49.132;8.920;2024-01-10T12:07:20;65.22;;;23.65;;
83199;SDS011;73092;49.132;8.920;2024-01-10T12:09:46;76.70;;;23.15;;
83199;SDS011;73092;49.132;8.920;2024-01-10T12:12:13;67.07;;;23.45;;
83199;SDS011;73092;49.132;8.920;2024-01-10T12:14:40;69.30;;;24.02;;
83199;SDS011;73092;49.132;8.920;2024-01-10T12:17:08;72.05;;;24.90;;
83199;SDS011;73092;49.132;8.920;2024-01-10T12:19:34;72.35;;;23.90;;
83199;SDS011;73092;49.132;8.920;2024-01-10T12:22:04;58.15;;;21.83;;
83199;SDS011;73092;49.132;8.920;2024-01-10T12:24:30;63.38;;;23.17;;
83199;SDS011;73092;49.132;8.920;2024-01-10T12:26:57;56.63;;;21.15;;
83199;SDS011;73092;49.132;8.920;2024-01-10T12:29:22;59.28;;;22.27;;
83199;SDS011;73092;49.132;8.920;2024-01-10T12:31:50;65.95;;;25.08;;
83199;SDS011;73092;49.132;8.920;2024-01-10T12:34:16;62.95;;;22.05;;
83199;SDS011;73092;49.132;8.920;2024-01-10T12:36:42;68.18;;;26.15;;
83199;SDS011;73092;49.132;8.920;2024-01-10T12:39:09;60.55;;;22.02;;
83199;SDS011;73092;49.132;8.920;2024-01-10T12:41:35;70.53;;;25.08;;
83199;SDS011;73092;49.132;8.920;2024-01-10T12:44:01;66.10;;;23.52;;
83199;SDS011;73092;49.132;8.920;2024-01-10T12:46:31;64.78;;;23.77;;
83199;SDS011;73092;49.132;8.920;2024-01-10T12:49:04;67.03;;;24.98;;
83199;SDS011;73092;49.132;8.920;2024-01-10T12:51:32;53.90;;;21.30;;
83199;SDS011;73092;49.132;8.920;2024-01-10T12:53:59;60.80;;;24.40;;
83199;SDS011;73092;49.132;8.920;2024-01-10T12:56:27;61.22;;;24.33;;
83199;SDS011;73092;49.132;8.920;2024-01-10T13:01:20;53.63;;;20.60;;
83199;SDS011;73092;49.132;8.920;2024-01-10T13:03:46;63.78;;;24.45;;
83199;SDS011;73092;49.132;8.920;2024-01-10T13:06:14;48.92;;;22.85;;
83199;SDS011;73092;49.132;8.920;2024-01-10T13:08:43;65.50;;;24.38;;
83199;SDS011;73092;49.132;8.920;2024-01-10T13:11:08;60.30;;;24.25;;
83199;SDS011;73092;49.132;8.920;2024-01-10T13:13:38;63.60;;;22.90;;
83199;SDS011;73092;49.132;8.920;2024-01-10T13:16:10;64.03;;;25.52;;
83199;SDS011;73092;49.132;8.920;2024-01-10T13:18:37;57.80;;;24.38;;
83199;SDS011;73092;49.132;8.920;2024-01-10T13:21:02;67.18;;;23.60;;
83199;SDS011;73092;49.132;8.920;2024-01-10T13:23:28;55.15;;;21.13;;
83199;SDS011;73092;49.132;8.920;2024-01-10T13:25:55;67.55;;;27.35;;
83199;SDS011;73092;49.132;8.920;2024-01-10T13:28:20;55.73;;;21.97;;
83199;SDS011;73092;49.132;8.920;2024-01-10T13:30:45;66.70;;;25.45;;
83199;SDS011;73092;49.132;8.920;2024-01-10T13:33:15;62.67;;;24.42;;
83199;SDS011;73092;49.132;8.920;2024-01-10T13:35:43;64.43;;;23.02;;
83199;SDS011;73092;49.132;8.920;2024-01-10T13:38:09;66.25;;;25.25;;
83199;SDS011;73092;49.132;8.920;2024-01-10T13:40:35;59.90;;;23.15;;
83199;SDS011;73092;49.132;8.920;2024-01-10T13:43:01;61.43;;;22.13;;
83199;SDS011;73092;49.132;8.920;2024-01-10T13:45:28;62.53;;;24.00;;
83199;SDS011;73092;49.132;8.920;2024-01-10T13:47:56;50.72;;;23.88;;
83199;SDS011;73092;49.132;8.920;2024-01-10T13:50:22;57.80;;;22.58;;
83199;SDS011;73092;49.132;8.920;2024-01-10T13:52:49;77.72;;;27.05;;
83199;SDS011;73092;49.132;8.920;2024-01-10T13:55:15;63.65;;;23.67;;
83199;SDS011;73092;49.132;8.920;2024-01-10T13:57:40;65.17;;;23.27;;
83199;SDS011;73092;49.132;8.920;2024-01-10T14:00:05;54.50;;;21.43;;
83199;SDS011;73092;49.132;8.920;2024-01-10T14:02:32;64.78;;;25.45;;
83199;SDS011;73092;49.132;8.920;2024-01-10T14:04:58;63.08;;;26.00;;
83199;SDS011;73092;49.132;8.920;2024-01-10T14:07:23;61.07;;;25.10;;
83199;SDS011;73092;49.132;8.920;2024-01-10T14:09:52;59.42;;;23.70;;
83199;SDS011;73092;49.132;8.920;2024-01-10T14:12:20;58.80;;;24.20;;
83199;SDS011;73092;49.132;8.920;2024-01-10T14:14:45;61.03;;;24.52;;
83199;SDS011;73092;49.132;8.920;2024-01-10T14:17:11;61.25;;;24.73;;
83199;SDS011;73092;49.132;8.920;2024-01-10T14:19:43;41.65;;;15.95;;
83199;SDS011;73092;49.132;8.920;2024-01-10T14:22:16;50.22;;;21.48;;
83199;SDS011;73092;49.132;8.920;2024-01-10T14:24:42;42.08;;;20.25;;
83199;SDS011;73092;49.132;8.920;2024-01-10T14:27:08;55.17;;;21.83;;
83199;SDS011;73092;49.132;8.920;2024-01-10T14:29:34;57.22;;;26.67;;
83199;SDS011;73092;49.132;8.920;2024-01-10T14:31:59;61.10;;;23.10;;
83199;SDS011;73092;49.132;8.920;2024-01-10T14:34:24;59.10;;;23.77;;
83199;SDS011;73092;49.132;8.920;2024-01-10T14:36:51;68.50;;;25.13;;
83199;SDS011;73092;49.132;8.920;2024-01-10T14:39:18;49.50;;;20.88;;
83199;SDS011;73092;49.132;8.920;2024-01-10T14:41:43;55.03;;;21.67;;
83199;SDS011;73092;49.132;8.920;2024-01-10T14:44:09;63.35;;;26.40;;
83199;SDS011;73092;49.132;8.920;2024-01-10T14:46:36;61.72;;;24.17;;
83199;SDS011;73092;49.132;8.920;2024-01-10T14:49:01;65.20;;;25.02;;
83199;SDS011;73092;49.132;8.920;2024-01-10T14:51:26;61.77;;;24.53;;
83199;SDS011;73092;49.132;8.920;2024-01-10T14:53:52;70.60;;;25.47;;
83199;SDS011;73092;49.132;8.920;2024-01-10T14:56:17;74.13;;;28.35;;
83199;SDS011;73092;49.132;8.920;2024-01-10T14:58:44;67.25;;;24.85;;
83199;SDS011;73092;49.132;8.920;2024-01-10T15:01:12;67.85;;;24.70;;